Time;durP1;ratioP1;P1;durP2;ratioP2;P2;SDS_P1;SDS_P2;PMS_P1;PMS_P2;Temp;Humidity;BMP_temperature;BMP_pressure;BME280_temperature;BME280_humidity;BME280_pressure;Samples;Min_cycle;Max_cycle;Signal;HPM_P1;HPM_P2
2022/03/13 00:00:17;;;;;;;8.68;7.78;;;6.40;72.90;;;;;;4981660;28;20229;-61
2022/03/13 00:02:45;;;;;;;9.68;8.30;;;6.60;81.50;;;;;;4981660;28;20765;-62
2022/03/13 00:05:16;;;;;;;10.02;8.35;;;6.70;73.90;;;;;;4979254;28;20225;-61
2022/03/13 00:07:47;;;;;;;9.40;7.65;;;6.70;79.30;;;;;;4983687;28;20206;-61
2022/03/13 00:10:17;;;;;;;9.00;8.10;;;6.80;75.80;;;;;;4976182;28;20293;-62
2022/03/13 00:12:47;;;;;;;7.30;6.60;;;6.80;74.30;;;;;;4977818;28;20297;-61
2022/03/13 00:15:16;;;;;;;9.65;8.60;;;6.80;82.30;;;;;;4977468;28;21194;-60
2022/03/13 00:17:44;;;;;;;9.55;7.93;;;6.90;76.40;;;;;;4981699;28;20714;-61
2022/03/13 00:20:12;;;;;;;9.68;7.75;;;6.90;73.00;;;;;;4984155;28;20209;-60
2022/03/13 00:22:41;;;;;;;9.32;8.32;;;6.70;74.90;;;;;;4977126;28;20246;-62
2022/03/13 00:25:11;;;;;;;10.23;9.23;;;6.80;76.00;;;;;;4973770;28;20227;-61
2022/03/13 00:27:39;;;;;;;8.63;7.75;;;6.90;75.30;;;;;;4975682;28;20305;-61
2022/03/13 00:30:11;;;;;;;9.18;8.18;;;6.90;85.30;;;;;;4983488;28;20222;-61
2022/03/13 00:32:39;;;;;;;9.68;8.55;;;6.90;73.70;;;;;;4984167;28;20681;-62
2022/03/13 00:35:07;;;;;;;9.32;8.43;;;6.80;76.50;;;;;;4991419;28;20241;-61
2022/03/13 00:37:35;;;;;;;10.13;8.20;;;6.70;74.20;;;;;;4991260;28;20285;-63
2022/03/13 00:40:04;;;;;;;9.13;8.10;;;6.60;75.40;;;;;;4991468;28;20257;-63
2022/03/13 00:42:33;;;;;;;8.88;7.97;;;6.70;80.50;;;;;;4993660;28;20652;-61
2022/03/13 00:45:01;;;;;;;10.48;7.43;;;6.80;79.20;;;;;;4994847;28;20281;-60
2022/03/13 00:47:29;;;;;;;9.32;8.32;;;6.80;81.20;;;;;;4994785;28;20256;-61
2022/03/13 00:49:57;;;;;;;10.13;8.15;;;6.80;73.50;;;;;;4994450;28;20289;-60
2022/03/13 00:52:24;;;;;;;8.90;8.00;;;6.60;72.40;;;;;;4994902;28;20308;-60
2022/03/13 00:54:52;;;;;;;11.25;8.15;;;6.50;73.00;;;;;;4994599;28;20241;-61
2022/03/13 00:57:20;;;;;;;8.90;8.00;;;6.50;75.70;;;;;;4994901;28;20310;-62
2022/03/13 00:59:49;;;;;;;9.20;8.40;;;6.40;73.00;;;;;;5001567;28;20280;-60
2022/03/13 01:02:17;;;;;;;7.13;6.43;;;6.30;75.00;;;;;;4995586;28;20778;-60
2022/03/13 01:04:45;;;;;;;7.68;6.97;;;6.40;83.70;;;;;;4994421;28;20233;-61
2022/03/13 01:07:15;;;;;;;8.52;7.28;;;6.40;82.10;;;;;;4994336;28;20222;-62
2022/03/13 01:09:43;;;;;;;8.30;7.15;;;6.40;75.30;;;;;;4994655;28;20277;-60
2022/03/13 01:12:11;;;;;;;7.88;6.90;;;6.40;84.70;;;;;;4994248;28;20261;-61
2022/03/13 01:14:39;;;;;;;8.57;7.72;;;6.50;79.10;;;;;;4994459;28;20308;-61
2022/03/13 01:17:09;;;;;;;8.48;7.53;;;6.50;74.20;;;;;;4994665;28;20244;-61
2022/03/13 01:19:38;;;;;;;7.78;7.07;;;6.50;77.70;;;;;;4993266;28;20628;-61
2022/03/13 01:22:07;;;;;;;8.82;7.93;;;6.40;79.10;;;;;;4991349;28;20222;-62
2022/03/13 01:24:43;;;;;;;8.68;7.80;;;6.50;74.30;;;;;;4994927;28;20293;-61
2022/03/13 01:27:12;;;;;;;9.13;8.23;;;6.50;76.40;;;;;;4994398;28;20275;-61
2022/03/13 01:29:41;;;;;;;7.80;7.10;;;6.40;74.40;;;;;;4994205;28;20244;-63
2022/03/13 01:32:12;;;;;;;8.02;7.20;;;6.40;80.10;;;;;;4993374;28;20320;-62
2022/03/13 01:34:46;;;;;;;10.40;8.48;;;6.30;76.30;;;;;;4993948;28;20240;-62
2022/03/13 01:37:20;;;;;;;8.82;7.25;;;6.20;73.50;;;;;;4994375;28;20624;-60
2022/03/13 01:39:49;;;;;;;8.50;7.70;;;6.30;79.60;;;;;;4994256;28;20210;-60
2022/03/13 01:42:17;;;;;;;11.20;6.82;;;6.30;77.00;;;;;;4993637;28;20317;-62
2022/03/13 01:44:45;;;;;;;8.35;7.55;;;6.30;78.70;;;;;;4994200;28;20288;-61
2022/03/13 01:47:14;;;;;;;9.48;8.38;;;6.40;83.30;;;;;;4993712;28;20363;-60
2022/03/13 01:49:43;;;;;;;9.70;8.00;;;6.40;75.10;;;;;;4996144;28;20209;-60
2022/03/13 01:52:15;;;;;;;7.50;6.75;;;6.30;76.20;;;;;;4993478;28;20575;-61
2022/03/13 01:54:45;;;;;;;7.95;7.13;;;6.30;80.80;;;;;;4993442;28;20234;-61
2022/03/13 01:57:18;;;;;;;8.90;8.07;;;6.30;82.60;;;;;;4993881;28;20655;-61
2022/03/13 01:59:51;;;;;;;8.27;7.18;;;6.30;79.10;;;;;;4988181;28;20202;-62
2022/03/13 02:02:22;;;;;;;8.93;8.02;;;6.10;75.90;;;;;;4993464;28;20600;-62
2022/03/13 02:04:52;;;;;;;9.13;8.23;;;6.10;75.80;;;;;;4995033;28;20653;-61
2022/03/13 02:07:20;;;;;;;9.70;8.70;;;6.00;74.20;;;;;;4992911;28;20302;-61
2022/03/13 02:09:48;;;;;;;8.85;8.05;;;5.90;76.60;;;;;;4993331;28;20203;-60
2022/03/13 02:12:18;;;;;;;10.73;7.93;;;5.90;77.30;;;;;;4992643;28;20313;-61
2022/03/13 02:14:47;;;;;;;9.02;8.00;;;5.80;74.40;;;;;;4993342;28;20325;-61
2022/03/13 02:17:26;;;;;;;8.45;7.40;;;5.70;74.00;;;;;;4993241;28;20321;-62
2022/03/13 02:19:55;;;;;;;9.35;8.15;;;5.70;82.90;;;;;;4998351;28;20244;-62
2022/03/13 02:22:23;;;;;;;11.50;8.93;;;5.90;75.30;;;;;;4992579;28;20292;-61
2022/03/13 02:24:53;;;;;;;9.27;8.40;;;5.80;74.50;;;;;;4992984;28;20724;-60
2022/03/13 02:27:23;;;;;;;7.82;7.05;;;5.70;74.80;;;;;;4992939;28;20309;-61
2022/03/13 02:29:51;;;;;;;10.45;7.93;;;5.70;83.10;;;;;;4993071;28;20280;-62
2022/03/13 02:32:19;;;;;;;8.30;7.47;;;5.70;75.30;;;;;;4992362;28;20786;-60
2022/03/13 02:34:48;;;;;;;9.00;8.20;;;5.80;77.50;;;;;;4992806;28;20758;-61
2022/03/13 02:37:23;;;;;;;8.90;8.00;;;5.70;75.80;;;;;;4992739;28;20300;-60
2022/03/13 02:39:53;;;;;;;8.57;7.68;;;5.60;76.50;;;;;;4986582;28;20198;-62
2022/03/13 02:42:21;;;;;;;12.25;8.20;;;5.50;77.40;;;;;;4986276;28;20256;-61
2022/03/13 02:44:49;;;;;;;9.82;7.70;;;5.50;75.80;;;;;;4992565;28;20249;-61
2022/03/13 02:47:17;;;;;;;8.88;7.97;;;5.50;81.30;;;;;;4992646;28;20294;-60
2022/03/13 02:49:45;;;;;;;8.75;7.95;;;5.60;77.50;;;;;;4993898;28;20285;-62
2022/03/13 02:52:13;;;;;;;9.23;8.27;;;5.70;75.20;;;;;;4991993;28;20726;-60
2022/03/13 02:54:41;;;;;;;8.15;7.35;;;5.60;81.20;;;;;;4992806;28;20256;-61
2022/03/13 02:57:10;;;;;;;8.85;8.05;;;5.70;78.80;;;;;;4992524;28;20289;-62
2022/03/13 02:59:38;;;;;;;8.02;7.25;;;5.80;76.60;;;;;;4992406;28;20280;-60
2022/03/13 03:02:06;;;;;;;8.30;7.57;;;5.80;81.40;;;;;;4991882;28;20309;-62
2022/03/13 03:04:34;;;;;;;8.02;7.30;;;5.80;81.00;;;;;;4991557;28;20285;-61
2022/03/13 03:07:05;;;;;;;8.32;7.53;;;5.80;81.70;;;;;;4992221;28;20245;-61
2022/03/13 03:09:35;;;;;;;8.65;7.82;;;5.90;84.50;;;;;;4992393;28;20305;-61
2022/03/13 03:12:05;;;;;;;8.07;7.28;;;5.90;76.40;;;;;;4994279;28;20250;-62
2022/03/13 03:14:35;;;;;;;8.18;7.30;;;5.90;79.90;;;;;;4995685;28;20289;-60
2022/03/13 03:17:05;;;;;;;8.15;7.00;;;5.90;76.20;;;;;;4992237;28;20975;-61
2022/03/13 03:19:33;;;;;;;8.90;8.10;;;5.90;76.20;;;;;;4996552;28;20615;-61
2022/03/13 03:22:01;;;;;;;9.02;8.15;;;5.90;76.00;;;;;;4991988;28;20261;-61
2022/03/13 03:24:29;;;;;;;7.85;7.05;;;6.00;76.10;;;;;;4992141;28;20224;-61
2022/03/13 03:26:58;;;;;;;9.15;8.23;;;6.00;76.90;;;;;;4991897;28;20233;-61
2022/03/13 03:29:27;;;;;;;8.65;7.88;;;5.80;74.30;;;;;;4992044;28;20760;-61
2022/03/13 03:31:58;;;;;;;8.63;7.78;;;5.60;74.30;;;;;;4991500;28;20336;-61
2022/03/13 03:34:28;;;;;;;9.40;8.50;;;5.70;75.70;;;;;;4991778;28;20659;-60
2022/03/13 03:36:58;;;;;;;7.97;7.22;;;5.60;75.60;;;;;;4991825;28;20722;-61
2022/03/13 03:39:27;;;;;;;9.70;8.70;;;5.70;79.60;;;;;;4992398;28;20202;-60
2022/03/13 03:41:55;;;;;;;9.35;8.38;;;5.60;74.20;;;;;;4991739;28;20687;-61
2022/03/13 03:44:24;;;;;;;8.43;7.63;;;5.70;80.50;;;;;;4991746;28;20234;-60
2022/03/13 03:46:54;;;;;;;9.73;8.82;;;5.60;75.10;;;;;;4991898;28;20226;-61
2022/03/13 03:49:24;;;;;;;8.50;7.30;;;5.50;76.60;;;;;;4992264;28;20249;-60
2022/03/13 03:51:52;;;;;;;8.35;7.30;;;5.50;81.30;;;;;;4991560;28;20222;-61
2022/03/13 03:54:20;;;;;;;9.02;8.13;;;5.60;77.60;;;;;;4991483;28;20239;-62
2022/03/13 03:56:48;;;;;;;8.23;7.45;;;5.50;76.90;;;;;;4991744;28;20285;-61
2022/03/13 03:59:18;;;;;;;7.93;7.22;;;5.40;74.40;;;;;;4991781;28;20209;-59
2022/03/13 04:01:46;;;;;;;9.15;8.30;;;5.40;77.40;;;;;;4991482;28;20256;-60
2022/03/13 04:04:18;;;;;;;10.85;8.20;;;5.30;77.20;;;;;;4991461;28;20210;-60
2022/03/13 04:06:47;;;;;;;8.55;7.75;;;5.30;77.90;;;;;;4991530;28;20209;-61
2022/03/13 04:09:15;;;;;;;8.82;8.02;;;5.30;77.30;;;;;;4991750;28;20222;-63
2022/03/13 04:11:44;;;;;;;8.30;7.50;;;5.10;75.20;;;;;;4992226;28;20280;-59
2022/03/13 04:14:13;;;;;;;8.45;7.65;;;5.10;81.30;;;;;;4972841;28;20237;-61
2022/03/13 04:16:41;;;;;;;9.20;7.97;;;5.20;81.10;;;;;;4983068;28;20260;-61
2022/03/13 04:19:09;;;;;;;9.63;8.65;;;5.20;75.50;;;;;;5001684;28;20228;-61
2022/03/13 04:21:41;;;;;;;9.45;8.50;;;5.10;75.70;;;;;;4991888;28;20230;-61
2022/03/13 04:24:11;;;;;;;8.93;8.10;;;5.00;77.00;;;;;;4995013;28;20213;-61
2022/03/13 04:26:40;;;;;;;9.68;8.52;;;5.10;76.80;;;;;;4995343;28;20210;-61
2022/03/13 04:29:10;;;;;;;9.90;8.68;;;4.90;75.20;;;;;;4995173;28;20230;-61
2022/03/13 04:31:40;;;;;;;9.52;8.05;;;4.80;76.70;;;;;;4994928;28;20238;-60
2022/03/13 04:34:15;;;;;;;9.60;8.65;;;4.60;77.60;;;;;;4994639;28;20219;-60
2022/03/13 04:36:43;;;;;;;10.00;9.00;;;4.60;79.00;;;;;;4995198;28;20739;-60
2022/03/13 04:39:13;;;;;;;9.93;9.02;;;4.50;76.90;;;;;;4995154;28;20234;-59
2022/03/13 04:41:41;;;;;;;9.30;8.40;;;4.60;80.70;;;;;;4994881;28;20753;-62
2022/03/13 04:44:14;;;;;;;10.02;8.95;;;4.50;76.90;;;;;;4994470;28;20301;-61
2022/03/13 04:46:42;;;;;;;9.05;8.20;;;4.50;79.50;;;;;;4995028;28;20210;-62
2022/03/13 04:49:11;;;;;;;8.65;7.75;;;4.70;80.00;;;;;;5000668;28;20226;-61
2022/03/13 04:51:39;;;;;;;8.85;7.55;;;4.60;78.90;;;;;;4994380;28;20233;-62
2022/03/13 04:54:08;;;;;;;7.82;7.13;;;4.70;82.00;;;;;;4994329;28;20716;-62
2022/03/13 04:56:38;;;;;;;8.68;7.78;;;4.80;81.50;;;;;;4994750;28;20264;-61
2022/03/13 04:59:07;;;;;;;8.50;7.70;;;4.80;77.30;;;;;;4994548;28;20225;-62
2022/03/13 05:01:35;;;;;;;9.18;8.18;;;4.70;76.90;;;;;;4994519;28;20206;-61
2022/03/13 05:04:03;;;;;;;8.45;7.63;;;4.60;75.60;;;;;;4994271;28;20210;-61
2022/03/13 05:06:31;;;;;;;7.40;6.72;;;4.50;77.10;;;;;;4994400;28;20241;-61
2022/03/13 05:08:59;;;;;;;9.90;9.00;;;4.50;79.40;;;;;;4988345;28;20316;-61
2022/03/13 05:11:26;;;;;;;9.15;8.23;;;4.60;78.00;;;;;;4994237;28;20280;-62
2022/03/13 05:13:56;;;;;;;8.80;7.90;;;4.50;77.30;;;;;;4994243;28;20774;-63
2022/03/13 05:16:24;;;;;;;7.72;7.03;;;4.60;77.30;;;;;;4994328;28;20296;-62
2022/03/13 05:18:51;;;;;;;7.80;7.10;;;4.70;87.20;;;;;;4996822;28;20202;-61
2022/03/13 05:21:19;;;;;;;9.02;8.02;;;4.80;83.80;;;;;;4994147;28;20230;-62
2022/03/13 05:23:47;;;;;;;7.70;6.80;;;4.90;77.90;;;;;;4997240;28;20289;-62
2022/03/13 05:26:15;;;;;;;8.30;7.50;;;4.80;81.30;;;;;;4998554;28;20293;-62
2022/03/13 05:28:43;;;;;;;8.50;7.60;;;4.80;80.00;;;;;;4993310;28;20228;-63
2022/03/13 05:31:12;;;;;;;8.20;7.40;;;4.70;76.40;;;;;;4994074;28;20305;-62
2022/03/13 05:33:40;;;;;;;7.60;6.85;;;4.60;75.30;;;;;;4993668;28;20249;-62
2022/03/13 05:36:08;;;;;;;8.60;7.80;;;4.50;81.70;;;;;;4993816;28;20735;-61
2022/03/13 05:38:37;;;;;;;8.30;7.10;;;4.50;80.70;;;;;;4990728;28;20242;-61
2022/03/13 05:41:06;;;;;;;7.60;6.78;;;4.60;77.10;;;;;;4993528;28;20237;-62
2022/03/13 05:43:34;;;;;;;8.00;6.47;;;4.70;81.60;;;;;;4993689;28;20739;-62
2022/03/13 05:46:02;;;;;;;7.65;6.95;;;4.70;82.70;;;;;;4993642;28;20301;-63
2022/03/13 05:48:32;;;;;;;7.88;7.15;;;4.80;85.00;;;;;;4998515;28;20922;-60
2022/03/13 05:51:00;;;;;;;8.68;7.43;;;4.80;81.50;;;;;;4993281;28;20261;-62
2022/03/13 05:53:28;;;;;;;9.32;8.50;;;4.70;77.50;;;;;;4993711;28;20708;-62
2022/03/13 05:55:56;;;;;;;9.10;8.00;;;4.80;78.20;;;;;;4986945;28;20663;-61
2022/03/13 05:58:24;;;;;;;8.93;8.02;;;4.70;76.00;;;;;;4987215;28;20292;-62
2022/03/13 06:01:03;;;;;;;8.15;7.45;;;4.70;75.50;;;;;;4987275;28;20273;-62
2022/03/13 06:03:33;;;;;;;8.68;7.78;;;4.70;79.50;;;;;;4988107;28;20733;-63
2022/03/13 06:06:02;;;;;;;8.50;6.80;;;4.70;76.10;;;;;;4991466;28;20618;-60
2022/03/13 06:08:31;;;;;;;7.85;7.05;;;4.90;87.10;;;;;;4993415;28;20206;-62
2022/03/13 06:10:59;;;;;;;8.13;7.43;;;5.00;82.10;;;;;;4993312;28;20249;-61
2022/03/13 06:13:27;;;;;;;8.02;7.25;;;4.90;75.70;;;;;;4992978;28;20230;-62
2022/03/13 06:15:55;;;;;;;9.75;7.20;;;4.90;76.80;;;;;;4992967;28;20711;-62
2022/03/13 06:18:23;;;;;;;8.25;7.45;;;4.80;76.40;;;;;;4993526;28;20624;-61
2022/03/13 06:20:52;;;;;;;11.32;8.00;;;4.70;75.80;;;;;;4989447;28;20260;-60
2022/03/13 06:23:21;;;;;;;8.98;7.22;;;4.70;78.50;;;;;;4992968;28;20317;-60
2022/03/13 06:25:49;;;;;;;10.20;7.97;;;4.80;77.10;;;;;;4993024;28;20731;-62
2022/03/13 06:28:19;;;;;;;9.55;7.97;;;4.80;77.20;;;;;;4993272;28;20233;-60
2022/03/13 06:30:47;;;;;;;9.30;7.05;;;4.90;75.00;;;;;;5002778;28;20229;-60
2022/03/13 06:33:15;;;;;;;8.70;7.90;;;4.90;83.80;;;;;;4991705;28;20266;-61
2022/03/13 06:35:43;;;;;;;8.23;7.40;;;5.00;75.20;;;;;;4989830;28;20722;-61
2022/03/13 06:38:12;;;;;;;7.75;6.95;;;4.80;74.90;;;;;;4992539;28;20723;-62
2022/03/13 06:40:40;;;;;;;8.60;7.72;;;4.80;75.00;;;;;;4992271;28;20652;-63
2022/03/13 06:43:08;;;;;;;8.25;6.45;;;4.80;75.90;;;;;;4991906;28;20304;-62
2022/03/13 06:45:36;;;;;;;7.78;7.07;;;4.80;75.80;;;;;;4992250;28;20782;-61
2022/03/13 06:48:04;;;;;;;7.40;6.78;;;4.80;75.80;;;;;;4994307;28;20309;-62
2022/03/13 06:50:32;;;;;;;9.18;8.15;;;4.90;76.90;;;;;;4995243;28;20237;-61
2022/03/13 06:53:00;;;;;;;8.43;7.63;;;4.90;74.90;;;;;;4991213;28;20264;-61
2022/03/13 06:55:29;;;;;;;8.13;7.30;;;4.90;75.70;;;;;;4992289;28;20284;-62
2022/03/13 06:57:57;;;;;;;10.05;8.35;;;5.00;75.70;;;;;;4992298;28;20220;-63
2022/03/13 07:00:25;;;;;;;8.85;8.00;;;5.00;75.90;;;;;;4992667;28;20202;-61
2022/03/13 07:02:53;;;;;;;8.20;7.40;;;5.10;74.60;;;;;;4987128;28;20784;-64
2022/03/13 07:05:23;;;;;;;8.32;7.53;;;5.10;73.40;;;;;;4985010;28;20228;-62
2022/03/13 07:07:52;;;;;;;8.65;7.85;;;5.20;73.40;;;;;;4982729;28;20625;-63
2022/03/13 07:10:20;;;;;;;10.75;7.75;;;5.20;72.70;;;;;;4986199;28;20337;-63
2022/03/13 07:12:50;;;;;;;8.07;7.25;;;5.30;72.40;;;;;;4986309;28;20328;-64
2022/03/13 07:15:18;;;;;;;8.52;7.72;;;5.40;72.20;;;;;;4986372;28;20198;-63
2022/03/13 07:17:46;;;;;;;7.97;7.28;;;5.50;72.30;;;;;;4986524;28;20233;-63
2022/03/13 07:20:16;;;;;;;7.80;7.10;;;5.50;70.80;;;;;;4987268;28;20297;-62
2022/03/13 07:22:45;;;;;;;7.97;7.28;;;5.60;71.80;;;;;;4983039;28;20305;-63
2022/03/13 07:25:14;;;;;;;8.35;7.40;;;5.70;70.90;;;;;;4986552;28;20233;-63
2022/03/13 07:27:42;;;;;;;7.97;6.80;;;5.80;70.80;;;;;;4986201;28;20256;-63
2022/03/13 07:30:14;;;;;;;8.27;7.57;;;5.90;70.80;;;;;;4986659;28;20313;-63
2022/03/13 07:32:42;;;;;;;8.00;7.30;;;6.10;70.40;;;;;;4982467;28;20243;-63
2022/03/13 07:35:11;;;;;;;7.57;6.82;;;6.10;70.10;;;;;;4987657;28;20238;-63
2022/03/13 07:37:39;;;;;;;8.35;7.00;;;6.30;70.30;;;;;;4991865;28;20302;-62
2022/03/13 07:40:08;;;;;;;8.38;7.10;;;6.50;69.40;;;;;;4986244;28;20206;-63
2022/03/13 07:42:36;;;;;;;10.48;7.05;;;6.60;69.20;;;;;;4968375;28;20385;-62
2022/03/13 07:45:04;;;;;;;9.07;7.65;;;6.70;68.50;;;;;;4986495;28;20222;-62
2022/03/13 07:47:33;;;;;;;9.63;7.93;;;6.90;68.10;;;;;;4986322;28;20283;-63
2022/03/13 07:50:01;;;;;;;7.63;6.65;;;7.00;67.70;;;;;;4990772;28;20536;-63
2022/03/13 07:52:29;;;;;;;7.30;6.60;;;7.20;67.00;;;;;;4985248;28;20229;-63
2022/03/13 07:54:59;;;;;;;8.48;7.35;;;7.40;67.10;;;;;;4983907;28;20205;-62
2022/03/13 07:57:28;;;;;;;7.70;6.85;;;7.50;66.90;;;;;;4982883;28;20236;-63
2022/03/13 07:59:56;;;;;;;7.10;6.30;;;7.60;67.10;;;;;;4977342;28;20206;-63
2022/03/13 08:02:24;;;;;;;7.78;7.05;;;7.60;65.30;;;;;;4985778;28;20253;-63
2022/03/13 08:04:54;;;;;;;7.82;6.10;;;7.50;66.40;;;;;;4986354;28;20201;-63
2022/03/13 08:07:22;;;;;;;7.80;6.90;;;7.40;66.20;;;;;;4985926;28;20284;-64
2022/03/13 08:09:50;;;;;;;8.05;7.13;;;7.50;66.80;;;;;;4986041;28;20229;-63
2022/03/13 08:12:17;;;;;;;8.27;7.57;;;7.70;66.30;;;;;;4985740;28;20257;-64
2022/03/13 08:14:45;;;;;;;11.57;6.63;;;7.80;67.30;;;;;;4983409;28;20269;-63
2022/03/13 08:17:15;;;;;;;8.88;7.30;;;7.90;66.40;;;;;;4985882;28;20205;-63
2022/03/13 08:19:43;;;;;;;9.45;5.97;;;8.00;66.10;;;;;;4986523;28;20202;-63
2022/03/13 08:22:13;;;;;;;7.80;7.05;;;8.10;65.30;;;;;;4985547;28;20253;-63
2022/03/13 08:24:40;;;;;;;8.05;7.20;;;8.10;65.40;;;;;;4985783;28;20214;-63
2022/03/13 08:27:08;;;;;;;9.35;7.20;;;8.30;65.50;;;;;;4982596;28;20206;-64
2022/03/13 08:29:36;;;;;;;7.45;6.75;;;8.50;66.20;;;;;;4978427;28;20234;-63
2022/03/13 08:32:05;;;;;;;7.20;6.60;;;8.50;64.20;;;;;;4985436;28;20326;-63
2022/03/13 08:34:39;;;;;;;8.07;7.35;;;8.60;65.40;;;;;;4985721;28;20225;-63
2022/03/13 08:37:07;;;;;;;8.93;7.75;;;8.70;64.60;;;;;;4985784;28;20206;-63
2022/03/13 08:39:36;;;;;;;8.70;7.18;;;8.80;64.50;;;;;;4985818;28;20238;-62
2022/03/13 08:42:05;;;;;;;8.05;7.05;;;8.90;65.20;;;;;;4987032;28;20308;-63
2022/03/13 08:44:33;;;;;;;7.55;6.78;;;9.10;65.10;;;;;;4985438;28;20293;-63
2022/03/13 08:47:01;;;;;;;8.13;7.18;;;9.00;64.50;;;;;;4985532;28;20918;-63
2022/03/13 08:49:30;;;;;;;9.43;7.25;;;9.20;64.80;;;;;;4986044;28;20294;-63
2022/03/13 08:51:58;;;;;;;8.45;7.28;;;9.10;64.70;;;;;;4985617;28;20316;-63
2022/03/13 08:54:26;;;;;;;8.95;8.05;;;9.20;64.00;;;;;;4983423;28;20302;-64
2022/03/13 08:56:55;;;;;;;10.60;7.20;;;9.40;65.10;;;;;;4983924;28;20305;-63
2022/03/13 08:59:23;;;;;;;9.38;7.32;;;9.70;63.50;;;;;;4985576;28;20290;-63
2022/03/13 09:01:51;;;;;;;8.40;7.28;;;9.80;64.20;;;;;;4985509;28;20285;-63
2022/03/13 09:04:20;;;;;;;7.30;6.50;;;9.90;64.00;;;;;;4986009;28;20221;-63
2022/03/13 09:06:49;;;;;;;9.90;7.53;;;10.10;64.20;;;;;;4988671;28;20284;-64
2022/03/13 09:09:19;;;;;;;9.77;7.93;;;10.30;63.60;;;;;;4986617;28;20214;-63
2022/03/13 09:11:47;;;;;;;8.57;7.78;;;10.30;62.60;;;;;;4988737;28;20321;-61
2022/03/13 09:14:17;;;;;;;10.95;7.70;;;10.20;63.00;;;;;;4988603;28;20643;-61
2022/03/13 09:16:45;;;;;;;8.40;7.53;;;10.20;63.10;;;;;;4988853;28;20296;-65
2022/03/13 09:19:14;;;;;;;9.40;7.43;;;10.30;62.60;;;;;;4994950;28;20210;-62
2022/03/13 09:21:42;;;;;;;8.75;7.47;;;10.30;62.50;;;;;;4987049;28;20268;-62
2022/03/13 09:24:11;;;;;;;10.43;7.80;;;10.50;62.60;;;;;;4988699;28;20289;-64
2022/03/13 09:26:45;;;;;;;9.55;7.65;;;10.70;62.40;;;;;;4988426;28;20238;-63
2022/03/13 09:29:13;;;;;;;9.23;7.00;;;10.80;62.30;;;;;;4983715;28;20226;-63
2022/03/13 09:31:42;;;;;;;7.55;6.72;;;10.80;62.20;;;;;;4975624;28;20653;-64
2022/03/13 09:34:11;;;;;;;7.45;6.75;;;11.00;61.60;;;;;;4976839;28;20205;-62
2022/03/13 09:36:42;;;;;;;8.00;6.93;;;11.00;61.10;;;;;;4979104;28;20210;-64
2022/03/13 09:39:10;;;;;;;10.00;7.45;;;11.10;61.20;;;;;;4986999;28;20305;-64
2022/03/13 09:41:39;;;;;;;9.18;7.30;;;11.10;60.10;;;;;;4985938;28;20352;-63
2022/03/13 09:44:07;;;;;;;13.32;7.50;;;11.20;61.30;;;;;;4982007;28;20248;-63
2022/03/13 09:46:36;;;;;;;9.10;7.28;;;11.40;61.20;;;;;;4986296;28;20635;-64
2022/03/13 09:49:05;;;;;;;7.90;7.10;;;11.50;60.00;;;;;;4984411;28;20222;-64
2022/03/13 09:51:34;;;;;;;8.20;7.38;;;11.60;60.40;;;;;;4987005;28;20260;-63
2022/03/13 09:54:02;;;;;;;8.48;7.78;;;11.60;60.80;;;;;;4987846;28;20317;-63
2022/03/13 09:56:34;;;;;;;9.00;7.60;;;11.60;60.50;;;;;;4987772;28;20636;-63
2022/03/13 09:59:03;;;;;;;8.63;7.25;;;12.10;60.40;;;;;;4988172;28;20325;-62
2022/03/13 10:01:31;;;;;;;8.43;7.63;;;12.30;60.20;;;;;;4987568;28;20309;-63
2022/03/13 10:04:00;;;;;;;7.70;6.95;;;12.40;59.30;;;;;;4987948;28;20248;-65
2022/03/13 10:06:30;;;;;;;7.72;7.03;;;12.70;59.60;;;;;;4986335;28;20213;-63
2022/03/13 10:08:57;;;;;;;7.72;7.03;;;12.60;60.10;;;;;;4987885;28;20297;-64
2022/03/13 10:11:33;;;;;;;9.15;8.25;;;12.60;59.70;;;;;;4987689;28;20256;-63
2022/03/13 10:14:07;;;;;;;9.55;7.65;;;12.80;59.30;;;;;;4987309;28;20233;-63
2022/03/13 10:16:40;;;;;;;11.93;7.88;;;12.90;59.70;;;;;;4986335;28;20198;-62
2022/03/13 10:19:15;;;;;;;7.90;7.20;;;13.20;59.40;;;;;;4990196;28;20288;-62
2022/03/13 10:22:07;;;;;;;8.10;7.13;;;13.40;59.20;;;;;;4986869;28;20684;-64
2022/03/13 10:24:42;;;;;;;8.60;7.82;;;13.50;59.60;;;;;;4987803;28;20289;-64
2022/03/13 10:27:13;;;;;;;10.05;8.70;;;13.50;58.30;;;;;;4987110;28;20800;-63
2022/03/13 10:29:42;;;;;;;9.00;6.93;;;13.50;59.40;;;;;;4987173;28;20668;-63
2022/03/13 10:32:10;;;;;;;9.48;8.57;;;13.50;58.00;;;;;;4986799;28;20691;-63
2022/03/13 10:34:39;;;;;;;9.00;8.20;;;13.70;59.10;;;;;;4986988;28;20680;-62
2022/03/13 10:37:09;;;;;;;9.35;7.95;;;14.00;59.40;;;;;;4987686;28;20210;-62
2022/03/13 10:39:39;;;;;;;9.23;7.32;;;14.20;58.60;;;;;;4987650;28;20370;-62
2022/03/13 10:42:07;;;;;;;9.93;9.02;;;14.30;57.80;;;;;;4987418;28;20230;-63
2022/03/13 10:44:45;;;;;;;8.52;7.75;;;14.40;58.70;;;;;;4984097;28;20210;-63
2022/03/13 10:47:14;;;;;;;9.68;8.73;;;14.60;58.70;;;;;;4987070;28;20265;-66
2022/03/13 10:49:44;;;;;;;9.35;8.45;;;14.70;56.70;;;;;;4987817;28;20206;-63
2022/03/13 10:52:29;;;;;;;11.05;7.90;;;14.50;57.90;;;;;;4979939;28;20317;-64
2022/03/13 10:55:18;;;;;;;8.90;8.10;;;14.60;57.30;;;;;;4983113;28;20202;-64
2022/03/13 10:57:51;;;;;;;9.52;8.52;;;14.70;56.70;;;;;;4986202;28;20628;-63
2022/03/13 11:00:21;;;;;;;11.75;9.02;;;15.00;57.10;;;;;;4986623;28;20206;-63
2022/03/13 11:02:49;;;;;;;9.10;8.20;;;15.30;57.10;;;;;;4986525;28;20218;-63
2022/03/13 11:05:17;;;;;;;10.10;8.32;;;15.40;56.40;;;;;;4986831;28;20747;-64
2022/03/13 11:07:52;;;;;;;8.07;7.30;;;15.70;57.80;;;;;;4986776;28;20198;-63
2022/03/13 11:10:20;;;;;;;10.60;8.40;;;15.70;56.90;;;;;;4985674;28;20309;-63
2022/03/13 11:12:48;;;;;;;8.20;7.40;;;15.60;56.80;;;;;;4985473;28;20249;-63
2022/03/13 11:15:16;;;;;;;10.27;9.27;;;15.60;56.90;;;;;;4986523;28;21009;-62
2022/03/13 11:17:45;;;;;;;10.60;9.60;;;15.80;56.00;;;;;;4986123;28;20202;-62
2022/03/13 11:20:13;;;;;;;9.00;8.20;;;16.10;56.10;;;;;;4988719;28;20261;-62
2022/03/13 11:22:41;;;;;;;8.57;7.78;;;16.10;55.20;;;;;;4986334;28;20327;-62
2022/03/13 11:25:11;;;;;;;10.30;9.30;;;16.10;55.80;;;;;;4986147;28;20822;-62
2022/03/13 11:27:41;;;;;;;8.85;7.95;;;15.90;56.60;;;;;;4986204;28;20233;-63
2022/03/13 11:30:34;;;;;;;8.48;7.40;;;15.90;56.60;;;;;;4987304;28;20260;-63
2022/03/13 11:33:03;;;;;;;8.95;8.15;;;15.90;55.60;;;;;;5008382;28;20225;-63
2022/03/13 11:35:32;;;;;;;9.57;7.47;;;15.80;55.90;;;;;;5010462;28;20225;-62
2022/03/13 11:38:22;;;;;;;8.95;8.15;;;15.70;54.70;;;;;;5010410;28;20213;-62
2022/03/13 11:40:51;;;;;;;9.60;8.60;;;16.10;56.90;;;;;;5010792;28;20267;-62
2022/03/13 11:43:21;;;;;;;8.82;8.02;;;16.40;55.10;;;;;;5010779;28;20201;-64
2022/03/13 11:45:51;;;;;;;14.77;7.60;;;16.20;54.90;;;;;;5010852;28;20209;-62
2022/03/13 11:48:40;;;;;;;8.80;8.07;;;16.20;56.30;;;;;;5008445;28;20197;-62
2022/03/13 11:51:08;;;;;;;10.40;9.45;;;16.10;55.20;;;;;;4999272;28;20306;-63
2022/03/13 11:53:45;;;;;;;11.07;9.13;;;16.30;55.20;;;;;;5009823;28;20669;-63
2022/03/13 11:56:28;;;;;;;10.43;9.52;;;16.40;55.10;;;;;;4986446;28;20755;-62
2022/03/13 11:58:58;;;;;;;9.32;7.43;;;16.50;54.70;;;;;;4992101;28;20228;-63
2022/03/13 12:01:35;;;;;;;8.82;7.93;;;16.40;54.70;;;;;;4992214;28;20661;-63
2022/03/13 12:04:26;;;;;;;9.20;8.25;;;16.40;56.60;;;;;;4991918;28;20666;-63
2022/03/13 12:07:00;;;;;;;9.85;8.95;;;16.10;55.80;;;;;;4991977;28;20289;-63
2022/03/13 12:09:33;;;;;;;10.18;8.98;;;16.00;56.20;;;;;;4991859;28;20229;-63
2022/03/13 12:12:05;;;;;;;9.48;8.48;;;15.70;55.30;;;;;;4991615;28;20268;-63
2022/03/13 12:14:54;;;;;;;11.13;9.32;;;15.40;56.00;;;;;;4992037;28;20261;-63
2022/03/13 12:17:25;;;;;;;9.65;8.65;;;15.30;57.00;;;;;;4991661;28;20236;-64
2022/03/13 12:19:54;;;;;;;9.45;8.48;;;15.60;56.20;;;;;;4998758;28;20626;-63
2022/03/13 12:22:25;;;;;;;11.70;8.98;;;15.70;55.90;;;;;;5007880;28;20319;-63
2022/03/13 12:24:54;;;;;;;9.43;8.63;;;16.00;55.80;;;;;;5010539;28;20237;-63
2022/03/13 12:27:25;;;;;;;10.02;8.75;;;16.10;55.00;;;;;;4985800;28;20245;-63
2022/03/13 12:29:56;;;;;;;10.60;9.25;;;16.30;56.10;;;;;;4985935;28;20234;-63
2022/03/13 12:32:29;;;;;;;10.52;9.50;;;16.40;55.10;;;;;;4991359;28;20284;-64
2022/03/13 12:34:58;;;;;;;9.80;8.55;;;16.20;54.80;;;;;;4991621;28;20202;-63
2022/03/13 12:37:27;;;;;;;11.75;8.85;;;15.80;55.40;;;;;;4993221;28;20229;-63
2022/03/13 12:39:58;;;;;;;12.10;8.68;;;15.50;56.60;;;;;;4995465;28;20214;-63
2022/03/13 12:42:33;;;;;;;10.48;9.18;;;15.40;57.30;;;;;;4995099;28;20230;-63
2022/03/13 12:45:06;;;;;;;11.27;10.07;;;15.30;55.60;;;;;;4995417;28;20248;-63
2022/03/13 12:47:36;;;;;;;12.43;9.85;;;15.20;55.70;;;;;;4995399;28;20272;-64
2022/03/13 12:50:08;;;;;;;12.85;9.75;;;15.10;56.50;;;;;;5007966;28;20289;-63
2022/03/13 12:52:36;;;;;;;9.27;8.38;;;14.90;56.00;;;;;;5008124;28;20225;-63
2022/03/13 12:55:08;;;;;;;10.80;9.70;;;14.80;56.50;;;;;;5014005;28;20263;-64
2022/03/13 12:57:38;;;;;;;11.00;9.98;;;14.60;57.50;;;;;;4996430;28;20212;-63
2022/03/13 13:00:09;;;;;;;10.20;8.60;;;14.40;57.20;;;;;;5013860;28;20220;-64
2022/03/13 13:02:37;;;;;;;10.15;9.15;;;14.50;58.10;;;;;;5013834;28;20224;-64
2022/03/13 13:05:07;;;;;;;12.02;9.48;;;14.70;57.40;;;;;;5013950;28;20213;-64